Sharon, Tennessee
Current Conditions -  °F | °C
As of 12:15 PM on Friday 19 Dec 2014 (Local Time) from KUCY Reporting Station
Overcast Overcast  
Wind Chill: 34°   Ceiling: 3800
Heat Index: 37°   Visibility: 10mi
Dew Point: 28°   Wind: 5mph
Humidity: 70%   Direction: 50°NE
Pressure: 30.26"   Gusts: NA
Location:  36.23°N, 88.82°W
Report Text: KUCY 191815Z AUTO 05004KT 10SM OVC038 03/M02 A3026 RMK
Loading
Personal Weather Stations






























Interactive Weather Map New forecast layout! Learn more

10-Day Weather Forecast

Advertisements
Track Severe Weather on mobile